Time;durP1;ratioP1;P1;durP2;ratioP2;P2;SDS_P1;SDS_P2;PMS_P1;PMS_P2;Temp;Humidity;BMP_temperature;BMP_pressure;BME280_temperature;BME280_humidity;BME280_pressure;Samples;Min_cycle;Max_cycle;Signal;HPM_P1;HPM_P2
2023/07/06 00:01:26;;;;;;;14.63;9.55;;;22.20;99.90;;;;;;5065411;28;20501;-73
2023/07/06 00:03:56;;;;;;;14.25;9.65;;;22.20;99.90;;;;;;5073630;28;20420;-73
2023/07/06 00:06:23;;;;;;;14.35;9.73;;;22.20;99.90;;;;;;5074112;28;20491;-73
2023/07/06 00:08:53;;;;;;;12.88;9.40;;;22.10;99.90;;;;;;5077231;28;20964;-72
2023/07/06 00:11:20;;;;;;;16.48;9.60;;;22.10;99.90;;;;;;5071386;28;21016;-73
2023/07/06 00:13:47;;;;;;;14.20;9.70;;;22.10;99.90;;;;;;5072716;28;20407;-73
2023/07/06 00:16:15;;;;;;;15.88;9.80;;;22.10;99.90;;;;;;5070014;28;20970;-73
2023/07/06 00:18:41;;;;;;;15.82;9.93;;;22.10;99.90;;;;;;5058659;28;20436;-73
2023/07/06 00:21:08;;;;;;;13.13;9.57;;;22.00;99.90;;;;;;5070315;28;20411;-73
2023/07/06 00:23:34;;;;;;;14.93;9.98;;;22.00;99.90;;;;;;5075297;28;20508;-73
2023/07/06 00:26:01;;;;;;;14.40;9.88;;;22.10;99.90;;;;;;5061967;28;20401;-73
2023/07/06 00:28:28;;;;;;;15.25;9.68;;;22.10;99.90;;;;;;5081882;28;20398;-73
2023/07/06 00:31:06;;;;;;;16.13;9.50;;;22.00;99.90;;;;;;5073979;28;20487;-73
2023/07/06 00:33:34;;;;;;;16.27;10.00;;;22.00;99.90;;;;;;5083001;28;20421;-74
2023/07/06 00:36:00;;;;;;;15.50;9.70;;;22.00;99.90;;;;;;5074630;28;20416;-74
2023/07/06 00:38:26;;;;;;;14.75;9.68;;;22.00;99.90;;;;;;5062671;28;20732;-74
2023/07/06 00:40:57;;;;;;;12.20;9.77;;;22.00;99.90;;;;;;5098280;27;20441;-73
2023/07/06 00:43:53;;;;;;;14.82;9.98;;;21.90;99.90;;;;;;5082249;28;20443;-73
2023/07/06 00:46:23;;;;;;;15.57;9.80;;;22.00;99.90;;;;;;5082180;28;20457;-73
2023/07/06 00:48:54;;;;;;;14.38;10.02;;;22.00;99.90;;;;;;5081955;28;20446;-73
2023/07/06 00:51:27;;;;;;;14.35;9.20;;;22.10;99.90;;;;;;5073746;28;20411;-73
2023/07/06 00:54:03;;;;;;;14.20;9.70;;;22.00;99.90;;;;;;5095421;28;20438;-73
2023/07/06 00:56:37;;;;;;;14.38;9.43;;;21.90;99.90;;;;;;5071200;28;20843;-73
2023/07/06 00:59:06;;;;;;;13.13;9.20;;;21.90;99.90;;;;;;5070495;28;20418;-73
2023/07/06 01:01:41;;;;;;;13.30;9.70;;;22.00;99.90;;;;;;5098043;27;20409;-73
2023/07/06 01:04:11;;;;;;;12.25;9.40;;;21.90;99.90;;;;;;5073869;28;20463;-73
2023/07/06 01:06:49;;;;;;;20.08;10.32;;;21.90;99.90;;;;;;5073615;28;20458;-73
2023/07/06 01:09:19;;;;;;;16.20;9.80;;;21.60;99.90;;;;;;5079856;28;20517;-73
2023/07/06 01:11:47;;;;;;;16.20;9.50;;;21.60;99.90;;;;;;5052093;28;20415;-73
2023/07/06 01:14:14;;;;;;;14.45;9.32;;;21.60;99.90;;;;;;5072408;28;20429;-73
2023/07/06 01:16:59;;;;;;;13.57;9.57;;;21.70;99.90;;;;;;5110049;27;20406;-73
2023/07/06 01:20:12;;;;;;;16.13;9.80;;;21.70;99.90;;;;;;5089405;27;20411;-74
2023/07/06 01:23:06;;;;;;;13.07;9.85;;;21.60;99.90;;;;;;5068637;28;20416;-74
2023/07/06 01:26:12;;;;;;;16.20;9.68;;;21.70;99.90;;;;;;5062297;28;20427;-74
2023/07/06 01:29:06;;;;;;;15.27;9.60;;;21.60;99.90;;;;;;5077926;28;20774;-74
2023/07/06 01:32:01;;;;;;;15.88;9.93;;;21.60;99.90;;;;;;5071048;28;20411;-74
2023/07/06 01:34:57;;;;;;;14.88;9.68;;;21.70;99.90;;;;;;5078864;28;20499;-74
2023/07/06 01:37:32;;;;;;;11.55;9.35;;;21.70;99.90;;;;;;5074281;28;20940;-74
2023/07/06 01:39:59;;;;;;;13.40;9.33;;;21.60;99.90;;;;;;5080724;28;20469;-74
2023/07/06 01:42:34;;;;;;;15.70;10.15;;;21.50;99.90;;;;;;5080324;28;20402;-74
2023/07/06 01:45:23;;;;;;;13.65;9.60;;;21.50;99.90;;;;;;5070721;28;20414;-73
2023/07/06 01:47:57;;;;;;;14.23;9.88;;;21.40;99.90;;;;;;5076880;28;20794;-73
2023/07/06 01:50:44;;;;;;;13.95;9.65;;;21.50;99.90;;;;;;5076039;28;20878;-73
2023/07/06 01:53:38;;;;;;;12.88;9.55;;;21.40;99.90;;;;;;5071720;28;20410;-73
2023/07/06 01:56:22;;;;;;;14.30;9.65;;;21.50;99.90;;;;;;5078724;28;20890;-73
2023/07/06 01:59:07;;;;;;;14.77;9.83;;;21.50;99.90;;;;;;5077199;28;20493;-73
2023/07/06 02:01:50;;;;;;;14.43;10.15;;;21.50;99.90;;;;;;5103937;27;20430;-73
2023/07/06 02:04:20;;;;;;;15.60;9.98;;;21.50;99.90;;;;;;5073021;28;20424;-73
2023/07/06 02:06:53;;;;;;;15.48;9.80;;;21.40;99.90;;;;;;5079259;28;20423;-73
2023/07/06 02:09:20;;;;;;;14.00;9.60;;;21.40;99.90;;;;;;5108009;27;20580;-74
2023/07/06 02:11:46;;;;;;;13.53;10.00;;;21.30;99.90;;;;;;5111076;27;20455;-73
2023/07/06 02:14:12;;;;;;;15.93;10.55;;;21.30;99.90;;;;;;5072530;28;20862;-73
2023/07/06 02:16:38;;;;;;;15.15;10.70;;;21.20;99.90;;;;;;5077170;28;20484;-74
2023/07/06 02:19:05;;;;;;;16.08;10.80;;;21.20;99.90;;;;;;5087256;27;20483;-74
2023/07/06 02:21:32;;;;;;;15.30;10.20;;;21.20;99.90;;;;;;5072998;28;20930;-74
2023/07/06 02:23:59;;;;;;;13.43;10.77;;;21.20;99.90;;;;;;5079745;28;20519;-74
2023/07/06 02:26:25;;;;;;;17.05;12.02;;;21.20;99.90;;;;;;5074621;28;20434;-74
2023/07/06 02:28:52;;;;;;;20.00;15.82;;;21.20;99.90;;;;;;5076216;28;20404;-73
2023/07/06 02:31:18;;;;;;;22.65;19.05;;;21.20;99.90;;;;;;5060220;28;20985;-74
2023/07/06 02:33:45;;;;;;;22.58;19.35;;;21.10;99.90;;;;;;5068929;28;20471;-74
2023/07/06 02:36:11;;;;;;;25.17;21.57;;;21.10;99.90;;;;;;5087044;28;20453;-73
2023/07/06 02:38:38;;;;;;;22.83;20.45;;;21.10;99.90;;;;;;5085072;28;20429;-74
2023/07/06 02:41:04;;;;;;;23.20;19.52;;;21.10;99.90;;;;;;5081524;28;20479;-74
2023/07/06 02:43:31;;;;;;;18.90;16.85;;;21.10;99.90;;;;;;5089388;28;20406;-73
2023/07/06 02:45:58;;;;;;;19.83;16.10;;;21.10;99.90;;;;;;5059901;28;20438;-74
2023/07/06 02:48:24;;;;;;;17.40;13.05;;;21.10;99.90;;;;;;5079093;28;20996;-73
2023/07/06 02:50:51;;;;;;;18.70;13.63;;;21.20;99.90;;;;;;5091730;27;20411;-73
2023/07/06 02:53:19;;;;;;;19.42;14.65;;;21.20;99.90;;;;;;5064536;28;20416;-73
2023/07/06 02:55:49;;;;;;;19.15;15.38;;;21.20;99.90;;;;;;5072079;28;20462;-73
2023/07/06 02:58:16;;;;;;;18.40;12.60;;;21.30;99.90;;;;;;5069094;28;20415;-73
2023/07/06 03:00:42;;;;;;;24.20;14.90;;;21.30;99.90;;;;;;5079175;28;20426;-73
2023/07/06 03:03:09;;;;;;;21.10;18.85;;;21.30;99.90;;;;;;5072768;28;20435;-74
2023/07/06 03:05:36;;;;;;;21.87;19.57;;;21.40;99.90;;;;;;5055574;28;21074;-73
2023/07/06 03:08:05;;;;;;;25.85;23.02;;;21.40;99.90;;;;;;5057220;28;20793;-74
2023/07/06 03:10:32;;;;;;;27.23;23.55;;;21.50;99.90;;;;;;5069956;28;20417;-73
2023/07/06 03:12:59;;;;;;;27.13;24.33;;;21.50;99.90;;;;;;5070849;28;20459;-74
2023/07/06 03:15:28;;;;;;;28.17;22.85;;;21.50;99.90;;;;;;5074632;28;20434;-73
2023/07/06 03:17:55;;;;;;;30.95;27.95;;;21.50;99.90;;;;;;5080004;28;20973;-73
2023/07/06 03:20:22;;;;;;;22.15;19.77;;;21.50;99.90;;;;;;5063102;28;20501;-74
2023/07/06 03:22:54;;;;;;;22.02;19.52;;;21.50;99.90;;;;;;5065575;28;20415;-73
2023/07/06 03:25:25;;;;;;;22.63;17.45;;;21.60;99.90;;;;;;5075630;28;20508;-74
2023/07/06 03:27:52;;;;;;;20.23;15.88;;;21.60;99.90;;;;;;5064282;28;20434;-73
2023/07/06 03:30:27;;;;;;;17.33;12.65;;;21.60;99.90;;;;;;5080518;28;20415;-73
2023/07/06 03:32:55;;;;;;;18.35;12.43;;;21.60;99.90;;;;;;5068692;28;20416;-74
2023/07/06 03:35:23;;;;;;;20.02;11.02;;;21.40;99.90;;;;;;5076446;28;20549;-73
2023/07/06 03:37:51;;;;;;;14.52;9.20;;;21.40;99.90;;;;;;5074061;28;21124;-73
2023/07/06 03:40:17;;;;;;;14.60;8.55;;;21.30;99.90;;;;;;5074564;28;20506;-73
2023/07/06 03:42:46;;;;;;;16.63;8.37;;;21.30;99.90;;;;;;5075556;28;20420;-73
2023/07/06 03:45:15;;;;;;;16.00;8.02;;;21.20;99.90;;;;;;5075169;28;20492;-73
2023/07/06 03:47:45;;;;;;;15.50;8.45;;;21.30;99.90;;;;;;5077155;28;20416;-73
2023/07/06 03:50:14;;;;;;;15.73;8.13;;;21.30;99.90;;;;;;5074202;28;20756;-73
2023/07/06 03:52:41;;;;;;;18.70;8.90;;;21.20;99.90;;;;;;5064747;28;21061;-73
2023/07/06 03:55:28;;;;;;;19.48;8.45;;;21.30;99.90;;;;;;5082299;28;20412;-73
2023/07/06 03:57:57;;;;;;;18.33;8.48;;;21.30;99.90;;;;;;5078184;28;20421;-73
2023/07/06 04:00:24;;;;;;;16.00;8.90;;;21.20;99.90;;;;;;5075809;28;20421;-73
2023/07/06 04:02:54;;;;;;;18.45;9.18;;;21.30;99.90;;;;;;5072524;28;20441;-73
2023/07/06 04:05:32;;;;;;;14.95;10.25;;;21.20;99.90;;;;;;5077389;28;20403;-73
2023/07/06 04:08:15;;;;;;;16.55;11.52;;;21.20;99.90;;;;;;5084622;28;20417;-73
2023/07/06 04:10:42;;;;;;;17.52;13.27;;;21.20;99.90;;;;;;5086618;28;20506;-73
2023/07/06 04:13:10;;;;;;;19.25;14.15;;;21.30;99.90;;;;;;5077125;28;20525;-73
2023/07/06 04:15:40;;;;;;;19.93;13.43;;;21.40;99.90;;;;;;5060930;28;20403;-73
2023/07/06 04:18:07;;;;;;;20.23;14.38;;;21.50;99.90;;;;;;5075350;28;20535;-73
2023/07/06 04:20:34;;;;;;;16.60;13.87;;;21.60;99.90;;;;;;5075658;28;20410;-73
2023/07/06 04:23:01;;;;;;;17.25;13.57;;;21.70;99.90;;;;;;5078503;28;20437;-73
2023/07/06 04:25:34;;;;;;;17.70;13.63;;;21.80;99.90;;;;;;5091338;27;21028;-74
2023/07/06 04:28:07;;;;;;;15.35;13.32;;;21.90;99.90;;;;;;5089049;28;20472;-74
2023/07/06 04:30:36;;;;;;;18.35;14.88;;;22.00;99.90;;;;;;5078131;28;20560;-75
2023/07/06 04:33:04;;;;;;;19.50;15.07;;;22.10;99.90;;;;;;5064713;28;20412;-74
2023/07/06 04:35:31;;;;;;;20.67;15.55;;;22.20;99.90;;;;;;5095659;27;20553;-74
2023/07/06 04:38:01;;;;;;;18.25;14.95;;;22.30;99.90;;;;;;5087839;28;20832;-74
2023/07/06 04:40:28;;;;;;;16.52;13.63;;;22.40;99.90;;;;;;5077375;28;20405;-74
2023/07/06 04:42:55;;;;;;;19.88;13.90;;;22.40;99.90;;;;;;5075396;28;20439;-74
2023/07/06 04:45:26;;;;;;;19.13;13.68;;;22.50;99.90;;;;;;5078762;28;20407;-74
2023/07/06 04:47:54;;;;;;;17.05;13.63;;;22.50;99.90;;;;;;5078398;28;20780;-74
2023/07/06 04:50:22;;;;;;;19.65;14.27;;;22.50;99.90;;;;;;5093050;27;20437;-74
2023/07/06 04:52:58;;;;;;;18.50;14.10;;;22.60;99.90;;;;;;5076086;28;20414;-74
2023/07/06 04:55:29;;;;;;;16.67;13.30;;;22.70;99.90;;;;;;5069694;28;20414;-75
2023/07/06 04:57:58;;;;;;;19.07;13.53;;;22.70;99.90;;;;;;5059370;28;20426;-74
2023/07/06 05:00:31;;;;;;;19.50;13.98;;;22.70;99.90;;;;;;5073500;28;20520;-75
2023/07/06 05:03:02;;;;;;;17.08;14.02;;;22.80;99.90;;;;;;5075837;28;20483;-75
2023/07/06 05:05:35;;;;;;;19.42;14.15;;;22.80;99.90;;;;;;5087665;28;20403;-75
2023/07/06 05:08:05;;;;;;;17.38;14.35;;;22.90;99.90;;;;;;5076672;28;20826;-75
2023/07/06 05:10:34;;;;;;;16.75;14.45;;;23.00;99.90;;;;;;5083047;28;20411;-75
2023/07/06 05:13:02;;;;;;;18.10;14.27;;;23.00;99.90;;;;;;5078157;28;21168;-75
2023/07/06 05:15:29;;;;;;;17.60;12.27;;;23.10;99.90;;;;;;5073297;28;20417;-74
2023/07/06 05:17:56;;;;;;;14.90;12.30;;;23.10;99.90;;;;;;5091950;28;20423;-75
2023/07/06 05:20:24;;;;;;;18.60;13.90;;;23.20;99.90;;;;;;5068703;28;20415;-74
2023/07/06 05:22:51;;;;;;;19.08;12.82;;;23.20;99.90;;;;;;5094613;28;20733;-74
2023/07/06 05:25:19;;;;;;;20.58;12.32;;;23.30;99.90;;;;;;5074396;28;20842;-74
2023/07/06 05:27:47;;;;;;;19.65;12.00;;;23.40;99.90;;;;;;5079567;28;20502;-74
2023/07/06 05:30:14;;;;;;;14.93;11.57;;;23.40;99.90;;;;;;5087771;28;20471;-74
2023/07/06 05:32:41;;;;;;;18.10;11.50;;;23.50;99.90;;;;;;5087496;28;20454;-74
2023/07/06 05:35:09;;;;;;;15.57;9.82;;;23.50;99.90;;;;;;5088477;28;20487;-74
2023/07/06 05:37:36;;;;;;;15.57;10.02;;;23.60;99.90;;;;;;5112508;27;20469;-75
2023/07/06 05:40:06;;;;;;;15.65;10.48;;;23.80;99.90;;;;;;5068127;28;20920;-74
2023/07/06 05:42:33;;;;;;;15.88;10.73;;;23.80;99.90;;;;;;5065239;28;21148;-75
2023/07/06 05:45:00;;;;;;;20.70;10.75;;;23.90;99.90;;;;;;5073795;28;20416;-75
2023/07/06 05:47:27;;;;;;;14.68;10.68;;;23.90;99.90;;;;;;5086474;28;20494;-75
2023/07/06 05:49:54;;;;;;;18.75;10.90;;;24.00;99.90;;;;;;5082795;28;20408;-75
2023/07/06 05:52:20;;;;;;;16.35;9.80;;;24.00;99.90;;;;;;5094913;28;20435;-73
2023/07/06 05:54:46;;;;;;;16.25;9.93;;;24.10;99.90;;;;;;5083625;28;20403;-74
2023/07/06 05:57:16;;;;;;;14.40;9.88;;;24.10;99.90;;;;;;5072829;28;20418;-74
2023/07/06 05:59:45;;;;;;;16.17;9.25;;;24.20;99.90;;;;;;5063432;28;20402;-74
2023/07/06 06:02:20;;;;;;;15.35;9.57;;;24.30;99.90;;;;;;5076476;28;20413;-75
2023/07/06 06:04:51;;;;;;;13.73;9.77;;;24.30;99.90;;;;;;5078771;28;20410;-74
2023/07/06 06:07:19;;;;;;;13.53;10.10;;;24.50;99.90;;;;;;5074437;28;20480;-75
2023/07/06 06:09:50;;;;;;;15.37;10.00;;;24.50;99.90;;;;;;5083224;28;20923;-75
2023/07/06 06:12:18;;;;;;;15.25;10.00;;;24.60;99.90;;;;;;5097618;27;20506;-74
2023/07/06 06:14:52;;;;;;;16.70;9.38;;;24.70;99.90;;;;;;5087771;28;20757;-75
2023/07/06 06:17:20;;;;;;;15.98;9.00;;;24.80;99.90;;;;;;5063048;28;20473;-75
2023/07/06 06:19:46;;;;;;;17.35;9.50;;;24.90;99.90;;;;;;5078221;28;21214;-74
2023/07/06 06:22:18;;;;;;;13.45;8.43;;;25.00;99.90;;;;;;5072048;28;20925;-74
2023/07/06 06:24:45;;;;;;;14.63;8.65;;;25.10;99.90;;;;;;5074835;28;20403;-74
2023/07/06 06:27:14;;;;;;;16.00;9.13;;;25.20;99.90;;;;;;5069776;28;20414;-74
2023/07/06 06:29:42;;;;;;;16.92;12.30;;;25.20;99.90;;;;;;5072283;28;20450;-74
2023/07/06 06:32:10;;;;;;;20.23;13.48;;;25.60;99.90;;;;;;5081109;28;20404;-74
2023/07/06 06:34:41;;;;;;;18.38;12.90;;;25.70;99.90;;;;;;5078165;28;20426;-74
2023/07/06 06:37:09;;;;;;;18.02;13.25;;;25.60;99.90;;;;;;5059278;28;20403;-74
2023/07/06 06:39:35;;;;;;;21.88;12.90;;;25.70;99.90;;;;;;5083821;28;20666;-74
2023/07/06 06:42:02;;;;;;;18.23;11.63;;;25.80;99.90;;;;;;5082853;28;20546;-73
2023/07/06 06:44:30;;;;;;;18.05;11.43;;;25.90;99.90;;;;;;5079565;28;20922;-74
2023/07/06 06:47:01;;;;;;;18.15;12.48;;;25.90;99.90;;;;;;5076808;28;20521;-72
2023/07/06 06:49:28;;;;;;;17.40;12.80;;;26.00;99.90;;;;;;5059510;28;20483;-73
2023/07/06 06:51:54;;;;;;;17.80;12.30;;;26.10;99.90;;;;;;5079109;28;20846;-72
2023/07/06 06:54:21;;;;;;;23.30;14.32;;;26.10;99.90;;;;;;5076398;28;20916;-76
2023/07/06 06:56:47;;;;;;;20.10;15.70;;;26.30;99.90;;;;;;5076314;28;20488;-76
2023/07/06 06:59:14;;;;;;;21.05;15.02;;;26.50;99.90;;;;;;5082167;28;20406;-74
2023/07/06 07:01:40;;;;;;;18.80;15.40;;;26.50;99.90;;;;;;5075016;28;20503;-74
2023/07/06 07:04:10;;;;;;;18.65;16.35;;;26.50;99.90;;;;;;5074893;28;20911;-74
2023/07/06 07:06:40;;;;;;;19.95;16.48;;;26.50;99.90;;;;;;5092789;27;20407;-74
2023/07/06 07:09:10;;;;;;;18.85;15.60;;;26.50;99.90;;;;;;5081294;28;20560;-74
2023/07/06 07:11:37;;;;;;;17.30;15.05;;;26.60;99.90;;;;;;5073240;28;20392;-74
2023/07/06 07:14:03;;;;;;;18.77;14.43;;;26.60;99.90;;;;;;5080690;28;20755;-74
2023/07/06 07:16:29;;;;;;;20.55;15.65;;;26.70;99.90;;;;;;5078747;28;20919;-74
2023/07/06 07:18:56;;;;;;;21.15;15.57;;;26.80;99.90;;;;;;5081853;28;20413;-74
2023/07/06 07:21:22;;;;;;;21.38;15.38;;;26.90;99.90;;;;;;5059231;28;20404;-73
2023/07/06 07:23:49;;;;;;;20.48;15.55;;;27.00;99.90;;;;;;5063630;28;20417;-72
2023/07/06 07:26:22;;;;;;;20.48;15.00;;;27.10;99.90;;;;;;5092494;28;20465;-72
2023/07/06 07:28:50;;;;;;;18.77;14.73;;;27.20;99.90;;;;;;5083801;27;20408;-74
2023/07/06 07:31:19;;;;;;;20.20;14.70;;;27.20;99.90;;;;;;5081942;28;20414;-74
2023/07/06 07:33:47;;;;;;;18.55;14.98;;;27.30;99.90;;;;;;5079075;28;20826;-73
2023/07/06 07:36:19;;;;;;;18.25;14.30;;;27.50;99.90;;;;;;5087032;28;20421;-73
2023/07/06 07:38:47;;;;;;;22.08;14.23;;;27.60;99.90;;;;;;5077358;28;21056;-73
2023/07/06 07:41:18;;;;;;;18.57;14.17;;;27.60;99.90;;;;;;5094389;28;20462;-74
2023/07/06 07:43:47;;;;;;;19.90;14.02;;;27.70;99.90;;;;;;5089280;28;20406;-73
2023/07/06 07:46:17;;;;;;;19.67;14.45;;;27.60;99.90;;;;;;5074235;28;20494;-73
2023/07/06 07:48:47;;;;;;;17.13;13.55;;;27.70;99.90;;;;;;5091780;28;20402;-73
2023/07/06 07:51:23;;;;;;;18.38;13.68;;;27.80;99.90;;;;;;5085116;28;20413;-73
2023/07/06 07:53:53;;;;;;;15.05;13.25;;;27.90;99.90;;;;;;5078410;28;20424;-73
2023/07/06 07:56:22;;;;;;;17.38;12.85;;;28.00;99.90;;;;;;5058240;28;20414;-73
2023/07/06 07:58:48;;;;;;;17.20;12.80;;;28.00;99.90;;;;;;5071626;28;20860;-73
2023/07/06 08:01:24;;;;;;;18.63;13.27;;;28.10;99.90;;;;;;5067035;28;20419;-75
2023/07/06 08:03:54;;;;;;;15.73;12.95;;;28.20;99.90;;;;;;5083977;28;20428;-75
2023/07/06 08:06:22;;;;;;;19.98;12.88;;;28.30;99.90;;;;;;5079218;28;20754;-73
2023/07/06 08:08:48;;;;;;;16.55;12.05;;;28.40;99.90;;;;;;5079746;28;20414;-73
2023/07/06 08:11:20;;;;;;;19.45;12.25;;;28.60;99.90;;;;;;5089168;28;20412;-73
2023/07/06 08:13:53;;;;;;;15.55;12.60;;;28.70;99.90;;;;;;5062348;28;20744;-73
2023/07/06 08:16:21;;;;;;;18.08;11.90;;;28.90;99.90;;;;;;5095407;28;20406;-73
2023/07/06 08:18:51;;;;;;;17.13;12.13;;;29.00;99.90;;;;;;5079116;28;20446;-73
2023/07/06 08:21:19;;;;;;;15.40;11.63;;;29.00;99.90;;;;;;5077920;28;20985;-73
2023/07/06 08:23:50;;;;;;;21.27;11.68;;;29.10;99.90;;;;;;5078568;28;20425;-75
2023/07/06 08:26:17;;;;;;;13.10;10.93;;;29.30;99.90;;;;;;5083255;28;20987;-75
2023/07/06 08:28:46;;;;;;;17.00;11.63;;;29.30;99.90;;;;;;5093610;28;20431;-73
2023/07/06 08:31:18;;;;;;;18.15;11.18;;;29.50;99.90;;;;;;5066798;28;20409;-73
2023/07/06 08:33:47;;;;;;;18.25;11.50;;;29.70;99.90;;;;;;5064694;28;20485;-75
2023/07/06 08:36:18;;;;;;;15.93;11.03;;;29.70;99.90;;;;;;5088663;28;20440;-73
2023/07/06 08:38:45;;;;;;;18.33;11.50;;;29.80;99.90;;;;;;5059869;28;20916;-75
2023/07/06 08:41:44;;;;;;;14.45;10.45;;;29.80;99.90;;;;;;5080184;28;20408;-72
2023/07/06 08:44:14;;;;;;;22.42;10.93;;;30.00;99.90;;;;;;5075565;28;20433;-73
2023/07/06 08:46:48;;;;;;;21.25;10.68;;;30.10;99.90;;;;;;5063564;28;20404;-73
2023/07/06 08:49:32;;;;;;;16.52;10.50;;;30.10;99.90;;;;;;5089171;28;20402;-72
2023/07/06 08:52:05;;;;;;;15.00;10.23;;;30.20;99.90;;;;;;5065044;28;20438;-73
2023/07/06 08:54:36;;;;;;;15.35;10.57;;;30.30;99.90;;;;;;5083260;28;20438;-73
2023/07/06 08:57:15;;;;;;;14.82;9.50;;;30.40;99.90;;;;;;5075493;28;20425;-72
2023/07/06 08:59:46;;;;;;;15.63;10.57;;;30.50;99.90;;;;;;5090016;28;20965;-72
2023/07/06 09:02:17;;;;;;;15.00;9.40;;;30.60;99.90;;;;;;5060795;28;20501;-72
2023/07/06 09:04:46;;;;;;;16.67;9.48;;;30.70;99.90;;;;;;5093942;27;20418;-73
2023/07/06 09:07:39;;;;;;;15.07;9.10;;;30.60;99.90;;;;;;5073961;28;20418;-72
2023/07/06 09:10:23;;;;;;;16.10;9.38;;;30.80;99.90;;;;;;5101551;27;20445;-73
2023/07/06 09:12:53;;;;;;;14.02;8.88;;;30.90;99.90;;;;;;5077569;28;20413;-73
2023/07/06 09:15:27;;;;;;;14.27;11.37;;;31.00;99.90;;;;;;5064484;28;20410;-72
2023/07/06 09:18:03;;;;;;;15.60;8.95;;;31.00;99.90;;;;;;5068971;28;20410;-73
2023/07/06 09:20:31;;;;;;;15.00;9.07;;;31.00;99.90;;;;;;5073948;28;20494;-73
2023/07/06 09:22:58;;;;;;;17.05;9.15;;;31.20;99.90;;;;;;5080122;28;20424;-73
2023/07/06 09:25:42;;;;;;;14.88;9.27;;;31.40;99.90;;;;;;5060266;28;20413;-71
2023/07/06 09:28:23;;;;;;;17.13;9.13;;;31.40;99.90;;;;;;5065992;28;21160;-71
2023/07/06 09:31:24;;;;;;;13.90;8.90;;;31.50;99.90;;;;;;5075040;28;20466;-71
2023/07/06 09:33:54;;;;;;;16.58;8.73;;;31.60;99.90;;;;;;5081242;28;20414;-71
2023/07/06 09:36:28;;;;;;;12.88;8.10;;;31.10;99.90;;;;;;5074068;28;20416;-71
2023/07/06 09:39:09;;;;;;;16.42;8.43;;;30.80;99.90;;;;;;5064730;28;20981;-71
2023/07/06 09:41:44;;;;;;;15.88;8.13;;;30.80;99.90;;;;;;5071758;28;20430;-71
2023/07/06 09:44:16;;;;;;;15.35;7.70;;;31.10;99.90;;;;;;5067708;28;20414;-71
2023/07/06 09:46:43;;;;;;;17.70;8.75;;;31.10;99.90;;;;;;5089350;27;20411;-71
2023/07/06 09:49:17;;;;;;;17.65;8.07;;;30.90;99.90;;;;;;5062463;28;20422;-71
2023/07/06 09:52:05;;;;;;;16.70;8.75;;;31.10;99.90;;;;;;5081975;28;20413;-71
2023/07/06 09:54:46;;;;;;;13.40;7.73;;;31.40;99.90;;;;;;5073216;28;20468;-71
2023/07/06 09:57:15;;;;;;;15.75;8.10;;;31.70;99.90;;;;;;5106326;27;20522;-71
2023/07/06 09:59:47;;;;;;;16.55;7.80;;;31.80;99.90;;;;;;5097880;27;20524;-71
2023/07/06 10:02:35;;;;;;;15.10;7.55;;;32.10;99.90;;;;;;5069681;28;20424;-71
2023/07/06 10:05:53;;;;;;;17.75;8.25;;;31.70;99.90;;;;;;5077394;28;20417;-71
2023/07/06 10:08:36;;;;;;;14.10;8.00;;;31.20;99.90;;;;;;5078158;28;20414;-71
2023/07/06 10:11:28;;;;;;;12.55;7.10;;;31.60;99.90;;;;;;5067064;28;20686;-71
2023/07/06 10:14:15;;;;;;;12.55;7.07;;;32.00;99.90;;;;;;5056012;28;20425;-71
2023/07/06 10:17:32;;;;;;;15.95;7.75;;;32.10;99.90;;;;;;5078025;28;20421;-75
2023/07/06 10:20:12;;;;;;;15.77;7.75;;;32.20;99.90;;;;;;5062245;28;20406;-72
2023/07/06 10:23:32;;;;;;;15.77;7.60;;;32.20;99.90;;;;;;5085709;28;20402;-71
2023/07/06 10:26:23;;;;;;;13.20;7.32;;;32.10;99.90;;;;;;5024472;28;20419;-71
2023/07/06 10:28:59;;;;;;;13.63;7.30;;;32.20;99.90;;;;;;5072467;28;21112;-72
2023/07/06 10:31:36;;;;;;;12.75;6.80;;;32.30;99.90;;;;;;5061932;28;20415;-71
2023/07/06 10:34:43;;;;;;;14.90;7.23;;;32.20;99.90;;;;;;5070743;28;20405;-71
2023/07/06 10:37:17;;;;;;;14.57;7.50;;;32.10;99.90;;;;;;5082585;28;20412;-72
2023/07/06 10:39:43;;;;;;;17.67;7.00;;;32.00;99.90;;;;;;5091345;28;20411;-71
2023/07/06 10:42:31;;;;;;;15.27;7.18;;;32.10;99.90;;;;;;5096809;28;20469;-72
2023/07/06 10:45:02;;;;;;;15.25;6.95;;;32.10;99.90;;;;;;5084668;28;20440;-72
2023/07/06 10:47:29;;;;;;;12.73;7.05;;;31.90;99.90;;;;;;5057136;28;20534;-72
2023/07/06 10:50:07;;;;;;;14.50;7.03;;;31.90;99.90;;;;;;5090828;28;21755;-72
2023/07/06 10:52:43;;;;;;;14.02;6.93;;;31.90;99.90;;;;;;5080048;28;20930;-72
2023/07/06 10:55:18;;;;;;;13.55;7.25;;;31.80;99.90;;;;;;5081550;28;20409;-72
2023/07/06 10:58:04;;;;;;;15.77;7.35;;;31.70;99.90;;;;;;5067276;28;20447;-73
2023/07/06 11:00:37;;;;;;;13.50;7.00;;;31.70;99.90;;;;;;5076486;28;20489;-72
2023/07/06 11:03:06;;;;;;;15.27;7.10;;;31.70;99.90;;;;;;5070508;28;20416;-72
2023/07/06 11:05:52;;;;;;;12.27;6.82;;;31.70;99.90;;;;;;5072473;28;20420;-72
2023/07/06 11:09:07;;;;;;;14.13;7.28;;;31.70;99.90;;;;;;5073454;28;20417;-72
2023/07/06 11:11:54;;;;;;;16.52;7.00;;;31.50;99.90;;;;;;5100031;27;20407;-72
2023/07/06 11:14:39;;;;;;;16.50;7.23;;;31.30;99.90;;;;;;5072503;28;20528;-72
2023/07/06 11:17:30;;;;;;;15.45;6.90;;;31.30;99.90;;;;;;5076042;28;20719;-73
2023/07/06 11:20:16;;;;;;;12.77;6.93;;;31.20;99.90;;;;;;5058109;28;22126;-72
2023/07/06 11:22:50;;;;;;;12.07;6.75;;;31.20;99.90;;;;;;5069014;28;20416;-72
2023/07/06 11:25:17;;;;;;;18.25;7.35;;;31.20;99.90;;;;;;5073432;28;21008;-72
2023/07/06 11:27:48;;;;;;;15.13;7.10;;;31.20;99.90;;;;;;5105460;27;20940;-72
2023/07/06 11:30:22;;;;;;;13.77;7.30;;;31.10;99.90;;;;;;5103571;27;20472;-72
2023/07/06 11:33:08;;;;;;;18.50;6.80;;;30.90;99.90;;;;;;5076641;28;20450;-72
2023/07/06 11:36:08;;;;;;;13.65;6.70;;;31.00;99.90;;;;;;5070128;28;20456;-72
2023/07/06 11:39:00;;;;;;;15.73;6.90;;;30.90;99.90;;;;;;5103376;27;20411;-72
2023/07/06 11:41:56;;;;;;;15.02;6.70;;;30.90;99.90;;;;;;5079002;28;20408;-72
2023/07/06 11:44:51;;;;;;;14.63;7.00;;;30.80;99.90;;;;;;5088397;28;20779;-72
2023/07/06 11:47:35;;;;;;;18.10;7.20;;;30.80;99.90;;;;;;5077023;28;20419;-72
2023/07/06 11:50:16;;;;;;;15.20;7.33;;;30.70;99.90;;;;;;5065067;28;20395;-72
2023/07/06 11:53:08;;;;;;;14.35;7.45;;;30.70;99.90;;;;;;5080089;28;20402;-72
2023/07/06 11:55:54;;;;;;;16.98;7.50;;;30.70;99.90;;;;;;5058389;28;21455;-72
2023/07/06 11:58:31;;;;;;;13.65;7.15;;;30.60;99.90;;;;;;5077731;28;20443;-72
2023/07/06 12:01:20;;;;;;;13.37;7.33;;;30.50;99.90;;;;;;5074835;28;20959;-72
2023/07/06 12:03:47;;;;;;;14.82;7.13;;;30.50;99.90;;;;;;5105085;27;20412;-72
2023/07/06 12:06:17;;;;;;;16.08;7.30;;;30.50;99.90;;;;;;5101024;28;20413;-72
2023/07/06 12:08:45;;;;;;;18.90;7.45;;;30.50;99.90;;;;;;5059218;28;20555;-72
2023/07/06 12:11:22;;;;;;;19.17;7.95;;;30.50;99.90;;;;;;5074870;28;20971;-72
2023/07/06 12:13:55;;;;;;;15.40;7.65;;;30.50;99.90;;;;;;5079123;28;20418;-71
2023/07/06 12:16:39;;;;;;;14.63;7.55;;;30.50;99.90;;;;;;5098330;28;20446;-72
2023/07/06 12:19:11;;;;;;;14.27;7.15;;;30.50;99.90;;;;;;5058832;28;20402;-72
2023/07/06 12:21:45;;;;;;;17.90;7.50;;;30.50;99.90;;;;;;5077579;28;20426;-72
2023/07/06 12:24:21;;;;;;;17.23;7.43;;;30.60;99.90;;;;;;5085786;28;20508;-72
2023/07/06 12:26:53;;;;;;;16.75;7.80;;;30.60;99.90;;;;;;5076246;28;20521;-72
2023/07/06 12:29:26;;;;;;;13.52;7.18;;;30.50;99.90;;;;;;5079031;28;20490;-72
2023/07/06 12:32:06;;;;;;;13.95;7.20;;;30.30;99.90;;;;;;5076886;28;20442;-73
2023/07/06 12:34:37;;;;;;;16.10;6.97;;;30.30;99.90;;;;;;5081142;28;20419;-72
2023/07/06 12:37:04;;;;;;;17.45;7.68;;;30.30;99.90;;;;;;5072156;28;20684;-72
2023/07/06 12:39:41;;;;;;;16.48;7.22;;;30.30;99.90;;;;;;5094490;28;20699;-72
2023/07/06 12:42:29;;;;;;;13.73;7.50;;;30.30;99.90;;;;;;5068532;28;20406;-72
2023/07/06 12:44:57;;;;;;;15.48;7.45;;;30.30;99.90;;;;;;5094149;27;20445;-72
2023/07/06 12:47:43;;;;;;;16.20;7.53;;;30.50;99.90;;;;;;5076796;28;20412;-72
2023/07/06 12:50:19;;;;;;;15.18;7.40;;;30.60;99.90;;;;;;5073643;28;20424;-72
2023/07/06 12:52:46;;;;;;;14.65;7.22;;;30.50;99.90;;;;;;5076122;28;20855;-72
2023/07/06 12:55:17;;;;;;;17.48;7.68;;;30.60;99.90;;;;;;5073114;28;20423;-72
2023/07/06 12:57:44;;;;;;;20.30;7.72;;;30.60;99.90;;;;;;5069288;28;21131;-72
2023/07/06 13:00:25;;;;;;;16.10;7.28;;;30.60;99.90;;;;;;5075008;28;21118;-72
2023/07/06 13:02:58;;;;;;;15.90;7.25;;;30.60;99.90;;;;;;5078084;28;20423;-72
2023/07/06 13:05:28;;;;;;;16.88;7.07;;;30.60;99.90;;;;;;5059624;28;20407;-72